Time;durP1;ratioP1;P1;durP2;ratioP2;P2;SDS_P1;SDS_P2;PMS_P1;PMS_P2;Temp;Humidity;BMP_temperature;BMP_pressure;BME280_temperature;BME280_humidity;BME280_pressure;Samples;Min_cycle;Max_cycle;Signal;HPM_P1;HPM_P2
2022/10/25 00:01:43;;;;;;;4.00;3.50;;;;;;;12.62;100.00;99423.46;100788;1338;24407;-35
2022/10/25 00:04:09;;;;;;;6.30;3.70;;;;;;;12.66;100.00;99425.74;100784;1339;22527;-35
2022/10/25 00:06:34;;;;;;;7.00;4.10;;;;;;;12.62;100.00;99432.38;100515;1339;25370;-37
2022/10/25 00:09:00;;;;;;;5.20;3.30;;;;;;;12.67;100.00;99430.92;100587;1340;24286;-38
2022/10/25 00:11:27;;;;;;;4.40;3.30;;;;;;;12.73;100.00;99427.64;100766;1334;24492;-37
2022/10/25 00:13:54;;;;;;;3.10;2.50;;;;;;;12.78;100.00;99424.93;100758;1339;22846;-38
2022/10/25 00:16:21;;;;;;;5.70;3.90;;;;;;;12.85;100.00;99426.46;100687;1339;23002;-35
2022/10/25 00:18:47;;;;;;;4.50;3.30;;;;;;;12.84;100.00;99424.02;100515;1339;23274;-37
2022/10/25 00:21:12;;;;;;;4.80;3.50;;;;;;;12.77;100.00;99422.23;100558;1332;23109;-35
2022/10/25 00:23:38;;;;;;;12.40;5.10;;;;;;;12.71;100.00;99420.77;100726;1334;24351;-35
2022/10/25 00:26:05;;;;;;;4.80;3.00;;;;;;;12.67;100.00;99424.26;100530;1339;24373;-36
2022/10/25 00:28:31;;;;;;;6.40;4.60;;;;;;;12.62;100.00;99423.21;100729;1333;24353;-37
2022/10/25 00:31:00;;;;;;;3.20;1.90;;;;;;;12.59;100.00;99421.19;100743;1339;24292;-35
2022/10/25 00:33:29;;;;;;;4.40;2.80;;;;;;;12.57;100.00;99420.67;100772;1331;22871;-35
2022/10/25 00:35:55;;;;;;;8.80;4.30;;;;;;;12.57;100.00;99423.27;100688;1342;22504;-37
2022/10/25 00:38:20;;;;;;;6.10;4.70;;;;;;;12.54;100.00;99423.67;100726;1339;24341;-37
2022/10/25 00:40:45;;;;;;;7.00;4.00;;;;;;;12.47;100.00;99426.44;100741;1338;23245;-36
2022/10/25 00:43:30;;;;;;;6.20;4.60;;;;;;;12.49;100.00;99427.88;100746;1331;25658;-35
2022/10/25 00:45:55;;;;;;;6.40;3.80;;;;;;;12.52;100.00;99423.73;100782;1339;24488;-35
2022/10/25 00:48:23;;;;;;;4.50;2.50;;;;;;;12.48;100.00;99422.32;100533;1334;24372;-34
2022/10/25 00:50:49;;;;;;;8.50;4.90;;;;;;;12.54;100.00;99418.42;100840;1337;22757;-35
2022/10/25 00:53:19;;;;;;;5.50;3.50;;;;;;;12.53;100.00;99417.30;100809;1334;24232;-36
2022/10/25 00:55:47;;;;;;;5.20;4.60;;;;;;;12.51;100.00;99420.70;100534;1339;22745;-37
2022/10/25 00:58:15;;;;;;;5.60;4.10;;;;;;;12.46;100.00;99412.58;100588;1339;22757;-36
2022/10/25 01:00:40;;;;;;;6.20;4.30;;;;;;;12.33;100.00;99408.23;100747;1334;23119;-36
2022/10/25 01:03:06;;;;;;;9.90;5.10;;;;;;;12.26;100.00;99410.19;100735;1339;24350;-36
2022/10/25 01:05:33;;;;;;;8.30;6.10;;;;;;;12.18;100.00;99409.86;100751;1339;24378;-35
2022/10/25 01:07:58;;;;;;;8.30;3.90;;;;;;;12.05;100.00;99407.48;100571;1339;22965;-34
2022/10/25 01:10:24;;;;;;;4.90;3.40;;;;;;;11.96;100.00;99409.17;100733;1339;24350;-35
2022/10/25 01:12:50;;;;;;;7.20;3.20;;;;;;;11.91;100.00;99413.01;100742;1339;23106;-40
2022/10/25 01:15:16;;;;;;;4.70;3.70;;;;;;;11.88;100.00;99414.83;100786;1339;24491;-36
2022/10/25 01:17:50;;;;;;;3.30;1.90;;;;;;;11.80;100.00;99423.44;100694;1339;22751;-35
2022/10/25 01:20:23;;;;;;;8.30;4.40;;;;;;;11.75;100.00;99425.42;100721;1334;22510;-37
2022/10/25 01:22:57;;;;;;;4.90;3.90;;;;;;;11.71;100.00;99433.73;100807;1339;22516;-37
2022/10/25 01:25:29;;;;;;;12.90;5.90;;;;;;;11.72;100.00;99439.23;100744;1339;22509;-36
2022/10/25 01:28:01;;;;;;;7.10;4.30;;;;;;;11.75;100.00;99443.96;100690;1339;24373;-35
2022/10/25 01:30:32;;;;;;;4.20;3.50;;;;;;;11.67;100.00;99453.21;100699;1339;22748;-37
2022/10/25 01:33:04;;;;;;;18.20;5.00;;;;;;;11.68;100.00;99454.95;100751;1339;22722;-34
2022/10/25 01:35:32;;;;;;;8.40;4.80;;;;;;;11.74;100.00;99462.71;100766;1339;24031;-37
2022/10/25 01:38:02;;;;;;;7.50;3.90;;;;;;;11.76;100.00;99469.84;100651;1334;22853;-36
2022/10/25 01:40:31;;;;;;;7.50;6.00;;;;;;;11.83;100.00;99468.83;100733;1334;24798;-34
2022/10/25 01:43:00;;;;;;;;;;;;;;;11.85;100.00;99471.25;100748;1339;25700;-36
2022/10/25 01:45:28;;;;;;;5.10;4.20;;;;;;;11.89;100.00;99462.82;100777;1339;24383;-33
2022/10/25 01:47:58;;;;;;;8.80;4.70;;;;;;;11.89;100.00;99457.52;100784;1339;22522;-36
2022/10/25 01:50:27;;;;;;;11.70;6.40;;;;;;;12.00;100.00;99455.64;100711;1339;24450;-36
2022/10/25 01:52:53;;;;;;;4.90;3.40;;;;;;;11.97;100.00;99452.08;100691;1337;24398;-33
2022/10/25 01:55:18;;;;;;;;;;;;;;;11.99;100.00;99451.61;100803;1334;22471;-34
2022/10/25 01:57:55;;;;;;;7.60;5.70;;;;;;;12.02;100.00;99450.84;100815;1339;23072;-38
2022/10/25 02:00:21;;;;;;;9.00;3.30;;;;;;;12.01;100.00;99444.75;100724;1331;24293;-35
2022/10/25 02:02:52;;;;;;;3.60;2.50;;;;;;;12.07;100.00;99445.42;100731;1337;24379;-34
2022/10/25 02:05:24;;;;;;;8.70;5.50;;;;;;;12.18;100.00;99443.41;100802;1339;22491;-35
2022/10/25 02:07:58;;;;;;;6.20;4.30;;;;;;;12.19;100.00;99437.48;100771;1338;25318;-38
2022/10/25 02:10:32;;;;;;;3.70;2.50;;;;;;;12.20;100.00;99430.36;100580;1326;22536;-37
2022/10/25 02:13:01;;;;;;;9.30;3.80;;;;;;;12.20;100.00;99419.67;100763;1337;22561;-37
2022/10/25 02:15:33;;;;;;;6.10;4.30;;;;;;;12.21;100.00;99417.77;100810;1339;23072;-35
2022/10/25 02:17:59;;;;;;;7.10;4.80;;;;;;;12.20;100.00;99412.71;100703;1339;22494;-35
2022/10/25 02:20:26;;;;;;;17.40;4.50;;;;;;;12.19;100.00;99409.86;100743;1339;24369;-37
2022/10/25 02:22:52;;;;;;;6.40;3.60;;;;;;;12.11;100.00;99402.02;100822;1324;22744;-35
2022/10/25 02:25:17;;;;;;;5.50;5.00;;;;;;;12.03;100.00;99401.92;100782;1337;23090;-35
2022/10/25 02:27:42;;;;;;;3.90;3.30;;;;;;;11.94;100.00;99398.57;100696;1340;24284;-35
2022/10/25 02:30:08;;;;;;;8.10;3.80;;;;;;;11.89;100.00;99404.56;100506;1334;25475;-35
2022/10/25 02:32:35;;;;;;;8.50;5.50;;;;;;;11.87;100.00;99409.73;100791;1339;22745;-35
2022/10/25 02:35:01;;;;;;;5.80;5.30;;;;;;;11.81;100.00;99405.34;100727;1339;24312;-35
2022/10/25 02:37:26;;;;;;;8.60;5.00;;;;;;;11.72;100.00;99398.34;100775;1339;22795;-34
2022/10/25 02:39:52;;;;;;;5.80;3.80;;;;;;;11.64;100.00;99399.52;100661;1339;24554;-37
2022/10/25 02:42:17;;;;;;;9.20;3.90;;;;;;;11.55;100.00;99398.13;100754;1337;22816;-35
2022/10/25 02:44:43;;;;;;;8.40;3.20;;;;;;;11.51;100.00;99399.86;100631;1342;22557;-37
2022/10/25 02:47:08;;;;;;;9.60;5.00;;;;;;;11.41;100.00;99405.80;100576;1342;22758;-36
2022/10/25 02:49:34;;;;;;;16.90;6.40;;;;;;;11.37;100.00;99411.02;100805;1339;23096;-37
2022/10/25 02:52:00;;;;;;;5.80;3.70;;;;;;;11.32;100.00;99417.26;100709;1339;24360;-37
2022/10/25 02:54:25;;;;;;;8.80;5.00;;;;;;;11.19;100.00;99423.36;100714;1340;24363;-37
2022/10/25 02:56:51;;;;;;;9.50;5.20;;;;;;;11.16;100.00;99428.97;100737;1337;23063;-35
2022/10/25 02:59:18;;;;;;;6.20;3.50;;;;;;;11.09;100.00;99428.40;100703;1339;24519;-34
2022/10/25 03:01:44;;;;;;;6.50;4.10;;;;;;;11.12;100.00;99432.02;100575;1344;22501;-35
2022/10/25 03:04:09;;;;;;;5.20;2.80;;;;;;;11.11;100.00;99437.48;100786;1340;24443;-35
2022/10/25 03:06:35;;;;;;;6.60;4.70;;;;;;;11.18;100.00;99445.98;100493;1335;22508;-38
2022/10/25 03:09:00;;;;;;;8.20;5.30;;;;;;;11.21;100.00;99452.32;100724;1335;22757;-37
2022/10/25 03:11:26;;;;;;;7.30;5.20;;;;;;;11.26;100.00;99453.84;100793;1341;22512;-36
2022/10/25 03:13:52;;;;;;;16.10;4.90;;;;;;;11.24;100.00;99452.51;100808;1345;24331;-37
2022/10/25 03:16:17;;;;;;;9.80;5.60;;;;;;;11.20;100.00;99454.39;100707;1340;23407;-37
2022/10/25 03:18:43;;;;;;;8.40;7.60;;;;;;;11.18;100.00;99459.30;100865;1338;22885;-37
2022/10/25 03:21:08;;;;;;;15.50;5.50;;;;;;;11.14;100.00;99458.58;100772;1343;24334;-37
2022/10/25 03:23:34;;;;;;;5.10;4.50;;;;;;;11.12;100.00;99455.46;100718;1341;23070;-35
2022/10/25 03:26:00;;;;;;;7.90;5.40;;;;;;;11.05;100.00;99454.05;100761;1334;24494;-34
2022/10/25 03:28:26;;;;;;;5.80;4.50;;;;;;;10.96;100.00;99451.23;100757;1345;24840;-37
2022/10/25 03:30:52;;;;;;;5.30;4.80;;;;;;;10.89;100.00;99447.42;100779;1340;22702;-35
2022/10/25 03:33:20;;;;;;;7.50;5.90;;;;;;;10.89;100.00;99450.78;100803;1337;24359;-36
2022/10/25 03:35:49;;;;;;;10.30;6.40;;;;;;;10.85;100.00;99449.88;100729;1337;24607;-33
2022/10/25 03:38:15;;;;;;;4.30;3.30;;;;;;;10.85;100.00;99447.48;100810;1334;24353;-33
2022/10/25 03:40:41;;;;;;;10.90;6.20;;;;;;;10.91;100.00;99443.31;100797;1345;24494;-34
2022/10/25 03:43:06;;;;;;;7.50;5.90;;;;;;;10.89;100.00;99439.21;100540;1340;24390;-34
2022/10/25 03:45:32;;;;;;;8.60;5.90;;;;;;;10.85;100.00;99438.64;100711;1343;24362;-34
2022/10/25 03:47:58;;;;;;;6.40;4.40;;;;;;;10.85;100.00;99441.05;100686;1340;22719;-34
2022/10/25 03:50:23;;;;;;;6.20;5.20;;;;;;;10.85;100.00;99442.98;100764;1334;22742;-36
2022/10/25 03:52:49;;;;;;;5.60;4.10;;;;;;;10.81;100.00;99441.77;100473;1341;22491;-36
2022/10/25 03:55:14;;;;;;;9.10;5.80;;;;;;;10.78;100.00;99437.61;100784;1337;22800;-36
2022/10/25 03:57:40;;;;;;;7.00;5.20;;;;;;;10.85;100.00;99439.48;100787;1331;22745;-38
2022/10/25 04:00:06;;;;;;;8.40;6.70;;;;;;;10.80;100.00;99441.67;100753;1344;24344;-36
2022/10/25 04:02:31;;;;;;;7.10;6.30;;;;;;;10.80;100.00;99442.05;100619;1343;22735;-36
2022/10/25 04:04:57;;;;;;;10.00;7.00;;;;;;;10.82;100.00;99445.58;100752;1343;24328;-36
2022/10/25 04:07:22;;;;;;;8.40;4.60;;;;;;;10.82;100.00;99448.55;100732;1329;25254;-34
2022/10/25 04:09:47;;;;;;;6.90;5.70;;;;;;;10.79;100.00;99448.85;100546;1340;23266;-34
2022/10/25 04:12:13;;;;;;;7.90;4.80;;;;;;;10.81;100.00;99448.70;100797;1340;22871;-34
2022/10/25 04:14:38;;;;;;;8.20;5.10;;;;;;;10.79;100.00;99452.90;100720;1343;23051;-34
2022/10/25 04:17:04;;;;;;;7.10;5.20;;;;;;;10.77;100.00;99453.89;100762;1343;25577;-34
2022/10/25 04:19:29;;;;;;;3.10;2.40;;;;;;;10.83;100.00;99451.82;100776;1337;23215;-37
2022/10/25 04:21:55;;;;;;;9.70;5.50;;;;;;;10.84;100.00;99451.75;100740;1341;23216;-34
2022/10/25 04:24:21;;;;;;;4.70;4.20;;;;;;;10.84;100.00;99444.92;100684;1344;22760;-35
2022/10/25 04:26:47;;;;;;;14.20;5.20;;;;;;;10.83;100.00;99445.48;100791;1343;22745;-37
2022/10/25 04:29:14;;;;;;;6.10;4.60;;;;;;;10.81;100.00;99446.11;100737;1342;23443;-37
2022/10/25 04:31:40;;;;;;;6.30;5.70;;;;;;;10.77;100.00;99448.59;100699;1330;24759;-37
2022/10/25 04:34:06;;;;;;;8.40;5.50;;;;;;;10.76;100.00;99452.39;100821;1337;24413;-34
2022/10/25 04:36:32;;;;;;;5.60;4.80;;;;;;;10.73;100.00;99457.91;100509;1346;24357;-34
2022/10/25 04:38:57;;;;;;;10.30;4.50;;;;;;;10.75;100.00;99460.73;100515;1346;22744;-38
2022/10/25 04:41:23;;;;;;;8.10;6.30;;;;;;;10.75;100.00;99461.27;100737;1340;23640;-35
2022/10/25 04:43:49;;;;;;;6.80;5.00;;;;;;;10.81;100.00;99463.04;100763;1337;24950;-36
2022/10/25 04:46:15;;;;;;;7.10;5.00;;;;;;;10.84;100.00;99459.68;100764;1345;24365;-36
2022/10/25 04:48:41;;;;;;;16.30;5.20;;;;;;;10.83;100.00;99459.95;100707;1340;23085;-34
2022/10/25 04:51:08;;;;;;;7.90;5.90;;;;;;;10.82;100.00;99456.52;100765;1341;23426;-33
2022/10/25 04:53:34;;;;;;;7.40;6.10;;;;;;;10.71;100.00;99459.34;100618;1344;23087;-36
2022/10/25 04:56:02;;;;;;;17.80;6.00;;;;;;;10.73;100.00;99460.84;100773;1339;24254;-36
2022/10/25 04:58:27;;;;;;;4.80;4.00;;;;;;;10.68;100.00;99465.10;100639;1342;22754;-36
2022/10/25 05:00:53;;;;;;;6.80;6.00;;;;;;;10.63;100.00;99466.27;100691;1339;23097;-38
2022/10/25 05:03:18;;;;;;;4.80;4.30;;;;;;;10.58;100.00;99465.82;100507;1340;22894;-36
2022/10/25 05:05:44;;;;;;;8.80;6.60;;;;;;;10.48;100.00;99467.42;100707;1345;23095;-35
2022/10/25 05:08:10;;;;;;;6.30;5.30;;;;;;;10.38;100.00;99462.02;100643;1334;24245;-35
2022/10/25 05:10:35;;;;;;;9.40;5.30;;;;;;;10.31;100.00;99469.44;100589;1333;24484;-35
2022/10/25 05:13:01;;;;;;;7.10;4.50;;;;;;;10.27;100.00;99471.83;100512;1345;22578;-35
2022/10/25 05:15:28;;;;;;;5.90;5.10;;;;;;;10.19;100.00;99471.93;100553;1345;22497;-32
2022/10/25 05:17:58;;;;;;;6.90;5.90;;;;;;;10.17;100.00;99480.79;100620;1340;22877;-38
2022/10/25 05:20:23;;;;;;;6.00;4.50;;;;;;;10.16;100.00;99488.10;100754;1341;22700;-36
2022/10/25 05:22:49;;;;;;;7.90;6.20;;;;;;;10.18;100.00;99493.73;100541;1340;23087;-35
2022/10/25 05:25:15;;;;;;;9.60;6.20;;;;;;;10.19;100.00;99502.55;100562;1342;22495;-36
2022/10/25 05:27:40;;;;;;;7.70;6.50;;;;;;;10.29;100.00;99501.13;100743;1345;22516;-37
2022/10/25 05:30:07;;;;;;;10.60;6.60;;;;;;;10.34;100.00;99502.55;100742;1343;22501;-37
2022/10/25 05:32:33;;;;;;;8.20;6.20;;;;;;;10.41;100.00;99502.52;100723;1345;23096;-38
2022/10/25 05:35:00;;;;;;;11.70;7.40;;;;;;;10.39;100.00;99504.03;100816;1345;25643;-35
2022/10/25 05:37:25;;;;;;;16.70;7.20;;;;;;;10.43;100.00;99503.80;100777;1339;22754;-36
2022/10/25 05:39:51;;;;;;;6.30;5.10;;;;;;;10.50;100.00;99505.16;100764;1339;23221;-36
2022/10/25 05:42:16;;;;;;;7.90;6.20;;;;;;;10.52;100.00;99504.65;100725;1339;22710;-34
2022/10/25 05:44:42;;;;;;;10.20;5.40;;;;;;;10.51;100.00;99503.39;100785;1333;22947;-36
2022/10/25 05:47:08;;;;;;;11.20;6.00;;;;;;;10.55;100.00;99505.54;100662;1339;22490;-37
2022/10/25 05:49:38;;;;;;;7.10;5.30;;;;;;;10.56;100.00;99508.35;100792;1339;25254;-33
2022/10/25 05:52:05;;;;;;;12.90;5.90;;;;;;;10.55;100.00;99510.00;100777;1338;25278;-42
2022/10/25 05:54:31;;;;;;;9.50;6.40;;;;;;;10.59;100.00;99516.85;100792;1339;23088;-37
2022/10/25 05:56:56;;;;;;;8.30;5.70;;;;;;;10.68;100.00;99518.27;100589;1329;22760;-34
2022/10/25 05:59:22;;;;;;;7.30;5.90;;;;;;;10.78;100.00;99519.27;100763;1337;24868;-38
2022/10/25 06:01:48;;;;;;;12.10;6.40;;;;;;;10.94;100.00;99521.14;100644;1345;24562;-37
2022/10/25 06:04:13;;;;;;;5.50;4.10;;;;;;;11.03;100.00;99523.80;100752;1339;22498;-37
2022/10/25 06:06:40;;;;;;;8.70;6.40;;;;;;;11.12;100.00;99519.60;100769;1330;24490;-35
2022/10/25 06:09:06;;;;;;;9.70;5.50;;;;;;;11.21;100.00;99514.50;100704;1337;22744;-35
2022/10/25 06:11:32;;;;;;;7.50;3.80;;;;;;;11.30;100.00;99508.74;100482;1339;413762;-37
2022/10/25 06:13:58;;;;;;;8.50;2.70;;;;;;;11.41;100.00;99499.73;100567;1334;22629;-35
2022/10/25 06:16:23;;;;;;;4.70;1.70;;;;;;;11.47;100.00;99490.01;100821;1330;24461;-36
2022/10/25 06:18:49;;;;;;;4.20;3.50;;;;;;;11.57;100.00;99477.02;100757;1339;23102;-36
2022/10/25 06:21:16;;;;;;;7.40;4.20;;;;;;;11.60;100.00;99465.81;100723;1339;24302;-36
2022/10/25 06:23:42;;;;;;;5.10;4.00;;;;;;;11.71;100.00;99456.62;100758;1339;22753;-36
2022/10/25 06:26:11;;;;;;;2.90;2.00;;;;;;;11.71;100.00;99455.09;100797;1339;22522;-34
2022/10/25 06:28:37;;;;;;;2.40;1.20;;;;;;;11.84;100.00;99448.35;100864;1334;22946;-33
2022/10/25 06:31:03;;;;;;;6.90;4.70;;;;;;;11.90;100.00;99440.09;100517;1339;22875;-36
2022/10/25 06:33:29;;;;;;;10.70;2.80;;;;;;;11.94;100.00;99441.84;100726;1339;22747;-36
2022/10/25 06:35:57;;;;;;;2.30;1.70;;;;;;;11.95;100.00;99442.26;100802;1338;24343;-36
2022/10/25 06:38:23;;;;;;;3.50;2.50;;;;;;;11.95;100.00;99440.31;100784;1339;22753;-36
2022/10/25 06:40:48;;;;;;;4.40;2.20;;;;;;;12.00;100.00;99443.17;100476;1339;24856;-35
2022/10/25 06:43:14;;;;;;;4.20;2.80;;;;;;;11.97;100.00;99448.30;100787;1339;22508;-36
2022/10/25 06:45:41;;;;;;;4.50;3.20;;;;;;;12.04;100.00;99445.92;100700;1333;24530;-33
2022/10/25 06:48:06;;;;;;;5.40;4.20;;;;;;;12.03;100.00;99447.08;100752;1340;24299;-33
2022/10/25 06:50:32;;;;;;;7.80;3.00;;;;;;;11.96;100.00;99451.36;100813;1339;24379;-36
2022/10/25 06:52:57;;;;;;;5.00;2.70;;;;;;;11.96;100.00;99455.73;100515;1339;25263;-36
2022/10/25 06:55:23;;;;;;;16.30;3.20;;;;;;;11.97;100.00;99457.58;100746;1339;23102;-36
2022/10/25 06:57:48;;;;;;;8.80;3.80;;;;;;;12.01;100.00;99461.44;100845;1339;23104;-33
2022/10/25 07:00:14;;;;;;;4.10;1.60;;;;;;;12.03;100.00;99458.84;100849;1339;25461;-36
2022/10/25 07:02:40;;;;;;;11.30;3.40;;;;;;;12.01;100.00;99460.64;100770;1339;24480;-41
2022/10/25 07:05:06;;;;;;;5.00;3.10;;;;;;;12.03;100.00;99461.48;100729;1325;24449;-34
2022/10/25 07:07:31;;;;;;;1.90;1.50;;;;;;;12.01;100.00;99463.51;100686;1339;22712;-34
2022/10/25 07:09:57;;;;;;;4.60;2.90;;;;;;;12.06;100.00;99463.39;100686;1338;24448;-34
2022/10/25 07:12:22;;;;;;;8.80;4.60;;;;;;;12.07;100.00;99464.51;100678;1339;24283;-35
2022/10/25 07:14:48;;;;;;;5.10;4.60;;;;;;;12.04;100.00;99465.64;100701;1339;23096;-37
2022/10/25 07:17:13;;;;;;;8.70;5.10;;;;;;;12.00;100.00;99464.67;100735;1339;24342;-35
2022/10/25 07:19:39;;;;;;;5.40;3.00;;;;;;;11.99;100.00;99469.23;100472;1332;24403;-37
2022/10/25 07:22:05;;;;;;;5.90;3.10;;;;;;;12.01;100.00;99473.70;100695;1339;22873;-34
2022/10/25 07:24:30;;;;;;;5.20;2.20;;;;;;;12.02;100.00;99478.34;100781;1339;22755;-38
2022/10/25 07:26:55;;;;;;;7.00;4.60;;;;;;;12.04;100.00;99484.19;100605;1342;23088;-34
2022/10/25 07:29:21;;;;;;;9.90;4.20;;;;;;;11.99;100.00;99483.92;100773;1337;25950;-34
2022/10/25 07:31:47;;;;;;;11.00;3.70;;;;;;;12.19;100.00;99477.83;100812;1339;22983;-34
2022/10/25 07:34:13;;;;;;;5.40;4.40;;;;;;;12.03;100.00;99480.63;100694;1339;24471;-36
2022/10/25 07:36:39;;;;;;;5.60;3.70;;;;;;;12.01;100.00;99485.79;100725;1339;24350;-36
2022/10/25 07:39:04;;;;;;;7.20;3.90;;;;;;;12.06;100.00;99484.35;100689;1339;24494;-33
2022/10/25 07:41:34;;;;;;;3.50;3.20;;;;;;;12.12;100.00;99485.39;100731;1331;22869;-33
2022/10/25 07:44:00;;;;;;;4.90;4.50;;;;;;;12.28;100.00;99480.91;100555;1339;25277;-36
2022/10/25 07:46:26;;;;;;;12.50;4.50;;;;;;;12.32;100.00;99481.25;100565;1334;22513;-36
2022/10/25 07:48:51;;;;;;;4.10;2.30;;;;;;;12.41;100.00;99476.65;100781;1339;24461;-34
2022/10/25 07:51:17;;;;;;;46.30;23.10;;;;;;;12.45;100.00;99472.39;100750;1338;23113;-35
2022/10/25 07:53:43;;;;;;;;;;;;;;;12.50;100.00;99473.10;100667;1342;22510;-35
2022/10/25 07:56:12;;;;;;;58.80;17.10;;;;;;;12.53;100.00;99473.80;100758;1333;22745;-37
2022/10/25 07:58:38;;;;;;;81.30;21.70;;;;;;;12.55;100.00;99472.48;100696;1333;24009;-34
2022/10/25 08:01:06;;;;;;;27.20;14.10;;;;;;;12.57;100.00;99473.05;100538;1340;22923;-35
2022/10/25 08:03:31;;;;;;;10.70;5.40;;;;;;;12.62;100.00;99471.34;100745;1337;23236;-37
2022/10/25 08:05:57;;;;;;;7.80;4.20;;;;;;;12.62;100.00;99475.08;100758;1339;24385;-37
2022/10/25 08:08:24;;;;;;;6.80;3.70;;;;;;;12.81;100.00;99467.64;100810;1332;22499;-37
2022/10/25 08:10:50;;;;;;;6.20;3.10;;;;;;;12.99;100.00;99457.23;100702;1317;22511;-35
2022/10/25 08:13:18;;;;;;;4.60;2.80;;;;;;;13.34;100.00;99446.67;100794;1339;24355;-35
2022/10/25 08:15:49;;;;;;;1.80;1.00;;;;;;;13.65;100.00;99432.80;100805;1334;22875;-38
2022/10/25 08:18:15;;;;;;;2.50;2.10;;;;;;;13.88;100.00;99415.19;100810;1339;24372;-38
2022/10/25 08:20:41;;;;;;;3.10;2.30;;;;;;;14.15;100.00;99404.84;100722;1331;24413;-38
2022/10/25 08:23:06;;;;;;;1.10;0.70;;;;;;;14.42;100.00;99404.92;100816;1339;23464;-36
2022/10/25 08:25:32;;;;;;;1.90;1.00;;;;;;;14.67;100.00;99390.96;100722;1317;22735;-35
2022/10/25 08:27:57;;;;;;;1.30;1.20;;;;;;;14.90;100.00;99385.02;100749;1339;24379;-34
2022/10/25 08:30:23;;;;;;;1.50;1.10;;;;;;;15.03;100.00;99384.86;100772;1339;23221;-37
2022/10/25 08:32:50;;;;;;;1.00;0.80;;;;;;;15.22;100.00;99384.98;100545;1339;22869;-33
2022/10/25 08:35:15;;;;;;;3.70;0.90;;;;;;;15.47;100.00;99380.74;100825;1339;24372;-34
2022/10/25 08:37:41;;;;;;;2.30;1.10;;;;;;;15.48;100.00;99384.94;100835;1339;22874;-35
2022/10/25 08:40:15;;;;;;;1.60;1.00;;;;;;;15.42;100.00;99385.27;100558;1339;23010;-35
2022/10/25 08:42:52;;;;;;;6.60;1.20;;;;;;;15.67;100.00;99385.69;100529;1339;24343;-33
2022/10/25 08:45:21;;;;;;;5.60;1.20;;;;;;;15.77;100.00;99387.09;100459;1339;23350;-36
2022/10/25 08:47:47;;;;;;;2.40;1.30;;;;;;;15.95;100.00;99383.02;100722;1334;22900;-38
2022/10/25 08:50:16;;;;;;;2.10;1.40;;;;;;;16.16;100.00;99388.16;100735;1339;22757;-35
2022/10/25 08:52:44;;;;;;;2.10;0.90;;;;;;;16.27;100.00;99385.70;100821;1331;24288;-35
2022/10/25 08:55:15;;;;;;;3.50;1.10;;;;;;;16.46;99.64;99389.04;100782;1339;22739;-33
2022/10/25 08:57:45;;;;;;;6.00;1.00;;;;;;;16.33;98.75;99390.40;100788;1339;22758;-33
2022/10/25 09:00:18;;;;;;;6.30;0.70;;;;;;;16.36;97.64;99385.20;100678;1334;25230;-36
2022/10/25 09:03:01;;;;;;;1.50;0.70;;;;;;;16.22;96.58;99383.95;100695;1334;25296;-36
2022/10/25 09:05:34;;;;;;;15.90;1.50;;;;;;;16.13;97.20;99385.13;100807;1331;23242;-39
2022/10/25 09:08:02;;;;;;;1.30;0.70;;;;;;;15.89;99.45;99387.89;100738;1339;22624;-33
2022/10/25 09:10:32;;;;;;;1.70;1.00;;;;;;;16.00;98.63;99390.73;100726;1334;23230;-37
2022/10/25 09:13:02;;;;;;;2.30;1.00;;;;;;;16.03;99.14;99392.80;100831;1339;24855;-38
2022/10/25 09:15:34;;;;;;;4.30;1.20;;;;;;;16.07;97.86;99390.80;100727;1339;22864;-33
2022/10/25 09:18:02;;;;;;;0.90;0.50;;;;;;;16.27;95.20;99393.20;100822;1334;22744;-35
2022/10/25 09:20:31;;;;;;;1.70;0.70;;;;;;;16.31;95.33;99395.88;100453;1339;25238;-35
2022/10/25 09:22:59;;;;;;;7.40;0.80;;;;;;;16.24;95.04;99394.90;100794;1339;23100;-36
2022/10/25 09:25:31;;;;;;;2.40;0.90;;;;;;;16.13;94.65;99397.67;100751;1339;25431;-37
2022/10/25 09:27:59;;;;;;;;;;;;;;;16.11;96.61;99398.34;100772;1333;22887;-38
2022/10/25 09:30:25;;;;;;;;;;;;;;;16.32;96.03;99404.95;100761;1334;22507;-34
2022/10/25 09:32:55;;;;;;;4.40;0.90;;;;;;;16.64;94.54;99407.41;100686;1339;23099;-35
2022/10/25 09:35:25;;;;;;;1.20;0.80;;;;;;;16.47;95.83;99407.12;100775;1339;22894;-33
2022/10/25 09:37:56;;;;;;;2.90;0.80;;;;;;;16.56;93.80;99409.48;100718;1339;22504;-33
2022/10/25 09:40:23;;;;;;;7.90;1.80;;;;;;;16.58;92.39;99409.73;100572;1340;22913;-33
2022/10/25 09:42:51;;;;;;;0.70;0.50;;;;;;;16.47;92.59;99410.58;100764;1329;23109;-34
2022/10/25 09:45:23;;;;;;;1.00;0.90;;;;;;;16.44;93.11;99412.34;100756;1331;22507;-35
2022/10/25 09:47:56;;;;;;;1.20;0.90;;;;;;;16.39;93.91;99414.34;100712;1337;25306;-33
2022/10/25 09:50:27;;;;;;;1.50;1.20;;;;;;;16.34;94.06;99414.98;100771;1334;22758;-38
2022/10/25 09:52:59;;;;;;;1.20;0.70;;;;;;;16.01;94.82;99410.58;100577;1332;23087;-37
2022/10/25 09:55:30;;;;;;;6.50;3.30;;;;;;;16.00;94.57;99413.59;100642;1340;24349;-38
2022/10/25 09:57:55;;;;;;;4.70;2.30;;;;;;;16.12;94.59;99414.39;100709;1339;22735;-34
2022/10/25 10:00:21;;;;;;;1.60;1.30;;;;;;;16.21;93.75;99408.31;100731;1339;22747;-34
2022/10/25 10:02:46;;;;;;;6.80;1.70;;;;;;;16.26;93.01;99413.45;100684;1339;22861;-37
2022/10/25 10:05:14;;;;;;;1.80;1.10;;;;;;;16.31;95.69;99414.35;100508;1339;22509;-34
2022/10/25 10:07:39;;;;;;;6.80;2.40;;;;;;;16.56;93.25;99412.69;100866;1339;23543;-35
2022/10/25 10:10:08;;;;;;;0.80;0.60;;;;;;;16.76;91.66;99408.97;100848;1339;23021;-35
2022/10/25 10:12:38;;;;;;;5.30;0.80;;;;;;;16.90;91.19;99412.73;100732;1331;22748;-35
2022/10/25 10:15:10;;;;;;;1.70;0.90;;;;;;;16.86;91.83;99416.61;100715;1328;22780;-37
2022/10/25 10:17:35;;;;;;;2.40;1.20;;;;;;;16.81;91.63;99410.14;100680;1339;24459;-35
2022/10/25 10:20:06;;;;;;;3.20;1.10;;;;;;;16.52;92.26;99412.64;100666;1334;23062;-37
2022/10/25 10:22:32;;;;;;;1.70;0.50;;;;;;;16.58;90.99;99409.48;100783;1326;23219;-35
2022/10/25 10:24:58;;;;;;;1.80;0.90;;;;;;;16.49;90.36;99412.80;100664;1339;23480;-35
2022/10/25 10:27:24;;;;;;;3.20;1.20;;;;;;;16.45;91.37;99411.57;100791;1334;22860;-36
2022/10/25 10:29:54;;;;;;;2.60;0.70;;;;;;;16.41;91.83;99415.48;100796;1334;23080;-34
2022/10/25 10:32:22;;;;;;;2.70;1.30;;;;;;;16.51;90.22;99413.60;100820;1339;24299;-34
2022/10/25 10:34:52;;;;;;;4.00;1.00;;;;;;;16.43;91.95;99416.71;100615;1342;22776;-33
2022/10/25 10:37:18;;;;;;;3.10;1.50;;;;;;;16.44;92.10;99415.44;100788;1334;22929;-33
2022/10/25 10:39:49;;;;;;;2.30;1.00;;;;;;;16.64;91.22;99422.69;100712;1332;22752;-33
2022/10/25 10:42:16;;;;;;;5.30;1.20;;;;;;;16.70;89.23;99420.95;100771;1331;23085;-35
2022/10/25 10:45:01;;;;;;;5.80;1.10;;;;;;;16.86;88.19;99416.55;100812;1334;22769;-36
2022/10/25 10:47:31;;;;;;;5.40;1.60;;;;;;;16.99;87.78;99410.10;100727;1339;24906;-34
2022/10/25 10:49:56;;;;;;;2.30;1.40;;;;;;;17.10;87.87;99408.24;100795;1325;23011;-38
2022/10/25 10:52:28;;;;;;;3.30;1.60;;;;;;;17.30;88.32;99404.41;100745;1325;22760;-38
2022/10/25 10:54:53;;;;;;;1.80;0.90;;;;;;;17.62;85.06;99405.48;100801;1339;25251;-38
2022/10/25 10:57:27;;;;;;;8.30;0.50;;;;;;;17.72;83.64;99404.16;100496;1336;23036;-37
2022/10/25 10:59:54;;;;;;;1.20;0.80;;;;;;;17.67;82.97;99403.30;100547;1337;25333;-34
2022/10/25 11:02:22;;;;;;;7.30;1.30;;;;;;;17.83;80.56;99395.53;100710;1339;22859;-34
2022/10/25 11:04:49;;;;;;;2.60;1.40;;;;;;;17.84;81.85;99397.75;100808;1339;24300;-36
2022/10/25 11:07:23;;;;;;;1.90;1.00;;;;;;;17.59;82.79;99406.19;100751;1334;22859;-37
2022/10/25 11:09:48;;;;;;;6.50;1.40;;;;;;;17.47;82.89;99405.20;100726;1339;23087;-34
2022/10/25 11:12:14;;;;;;;4.40;2.30;;;;;;;17.30;82.77;99406.69;100739;1326;22514;-35
2022/10/25 11:14:40;;;;;;;1.00;0.70;;;;;;;17.60;83.22;99401.91;100758;1339;22663;-35
2022/10/25 11:17:12;;;;;;;5.30;0.90;;;;;;;17.87;81.98;99400.04;100732;1339;22874;-34
2022/10/25 11:19:45;;;;;;;1.70;0.40;;;;;;;17.61;81.66;99392.91;100544;1334;22500;-38